createdAt,value
2018-09-05T00:00:42.380Z,15.20
2018-09-05T00:03:11.668Z,15.20
2018-09-05T00:05:40.990Z,15.20
2018-09-05T00:08:10.218Z,15.20
2018-09-05T00:10:39.758Z,15.20
2018-09-05T00:13:09.152Z,15.10
2018-09-05T00:15:38.499Z,15.10
2018-09-05T00:18:07.856Z,15.10
2018-09-05T00:20:37.161Z,15.00
2018-09-05T00:23:06.512Z,15.10
2018-09-05T00:25:35.790Z,15.00
2018-09-05T00:28:05.136Z,15.00
2018-09-05T00:30:34.793Z,15.00
2018-09-05T00:33:04.194Z,14.90
2018-09-05T00:35:33.477Z,14.90
2018-09-05T00:38:02.806Z,14.90
2018-09-05T00:40:32.108Z,14.90
2018-09-05T00:43:01.497Z,14.80
2018-09-05T00:45:30.906Z,14.80
2018-09-05T00:48:00.321Z,14.80
2018-09-05T00:50:29.724Z,14.80
2018-09-05T00:52:59.064Z,14.70
2018-09-05T00:55:28.523Z,14.70
2018-09-05T00:57:57.891Z,14.60
2018-09-05T01:00:27.349Z,14.60
2018-09-05T01:02:56.729Z,14.60
2018-09-05T01:05:26.150Z,14.60
2018-09-05T01:07:55.534Z,14.60
2018-09-05T01:10:25.141Z,14.60
2018-09-05T01:12:54.542Z,14.60
2018-09-05T01:15:23.994Z,14.60
2018-09-05T01:17:53.438Z,14.50
2018-09-05T01:20:22.968Z,14.50
2018-09-05T01:22:52.315Z,14.50
2018-09-05T01:25:21.643Z,14.50
2018-09-05T01:27:51.033Z,14.50
2018-09-05T01:30:20.358Z,14.40
2018-09-05T01:32:49.740Z,14.40
2018-09-05T01:35:19.050Z,14.40
2018-09-05T01:37:48.386Z,14.40
2018-09-05T01:40:17.693Z,14.30
2018-09-05T01:42:47.016Z,14.30
2018-09-05T01:45:16.344Z,14.30
2018-09-05T01:47:45.672Z,14.20
2018-09-05T01:50:15.044Z,14.20
2018-09-05T01:52:44.364Z,14.20
2018-09-05T01:55:13.763Z,14.20
2018-09-05T01:57:43.224Z,14.20
2018-09-05T02:00:16.773Z,14.20
2018-09-05T02:02:46.101Z,14.20
2018-09-05T02:05:15.482Z,14.10
2018-09-05T02:07:44.799Z,14.10
2018-09-05T02:10:14.147Z,14.10
2018-09-05T02:12:43.550Z,14.10
2018-09-05T02:15:12.891Z,14.10
2018-09-05T02:17:42.190Z,14.10
2018-09-05T02:20:11.587Z,14.10
2018-09-05T02:22:40.927Z,14.10
2018-09-05T02:25:10.246Z,14.10
2018-09-05T02:27:39.605Z,14.00
2018-09-05T02:30:08.986Z,14.00
2018-09-05T02:32:38.462Z,14.00
2018-09-05T02:35:07.825Z,13.90
2018-09-05T02:37:37.147Z,13.90
2018-09-05T02:40:07.102Z,13.90
2018-09-05T02:42:36.409Z,13.90
2018-09-05T02:45:05.992Z,13.90
2018-09-05T02:47:35.465Z,13.90
2018-09-05T02:50:04.887Z,13.80
2018-09-05T02:52:34.682Z,13.80
2018-09-05T02:55:04.015Z,13.80
2018-09-05T02:57:33.348Z,13.80
2018-09-05T03:00:02.768Z,13.80
2018-09-05T03:02:32.069Z,13.80
2018-09-05T03:05:01.350Z,13.80
2018-09-05T03:07:30.676Z,13.80
2018-09-05T03:10:00.015Z,13.80
2018-09-05T03:12:29.268Z,13.80
2018-09-05T03:14:58.529Z,13.80
2018-09-05T03:17:27.841Z,13.70
2018-09-05T03:19:57.102Z,13.70
2018-09-05T03:22:26.478Z,13.70
2018-09-05T03:24:55.773Z,13.70
2018-09-05T03:27:25.061Z,13.70
2018-09-05T03:29:54.387Z,13.60
2018-09-05T03:32:23.734Z,13.60
2018-09-05T03:34:53.021Z,13.60
2018-09-05T03:37:22.270Z,13.60
2018-09-05T03:39:51.580Z,13.60
2018-09-05T03:42:20.894Z,13.50
2018-09-05T03:44:50.181Z,13.60
2018-09-05T03:47:19.525Z,13.60
2018-09-05T03:49:48.876Z,13.60
2018-09-05T03:52:18.199Z,13.60
2018-09-05T03:54:47.518Z,13.60
2018-09-05T03:57:16.825Z,13.60
2018-09-05T03:59:46.114Z,13.50
2018-09-05T04:02:15.492Z,13.50
2018-09-05T04:04:44.786Z,13.50
2018-09-05T04:07:14.146Z,13.50
2018-09-05T04:09:43.487Z,13.40
2018-09-05T04:12:12.852Z,13.40
2018-09-05T04:14:42.087Z,13.50
2018-09-05T04:17:11.423Z,13.50
2018-09-05T04:19:40.714Z,13.50
2018-09-05T04:22:10.054Z,13.40
2018-09-05T04:24:39.539Z,13.40
2018-09-05T04:27:08.951Z,13.50
2018-09-05T04:29:38.275Z,13.40
2018-09-05T04:32:07.622Z,13.40
2018-09-05T04:34:36.885Z,13.40
2018-09-05T04:37:06.781Z,13.40
2018-09-05T04:39:36.049Z,13.30
2018-09-05T04:42:05.472Z,13.30
2018-09-05T04:44:34.746Z,13.30
2018-09-05T04:47:04.117Z,13.30
2018-09-05T04:49:33.399Z,13.30
2018-09-05T04:52:02.695Z,13.30
2018-09-05T04:54:31.934Z,13.30
2018-09-05T04:57:01.199Z,13.30
2018-09-05T04:59:30.472Z,13.30
2018-09-05T05:01:59.716Z,13.30
2018-09-05T05:04:29.061Z,13.30
2018-09-05T05:06:58.318Z,13.30
2018-09-05T05:09:27.556Z,13.30
2018-09-05T05:11:56.830Z,13.30
2018-09-05T05:14:26.182Z,13.40
2018-09-05T05:16:55.513Z,13.50
2018-09-05T05:19:25.046Z,13.50
2018-09-05T05:21:54.341Z,13.60
2018-09-05T05:24:23.797Z,13.70
2018-09-05T05:26:53.149Z,13.70
2018-09-05T05:29:22.385Z,13.80
2018-09-05T05:31:51.673Z,13.90
2018-09-05T05:34:20.965Z,13.90
2018-09-05T05:36:50.301Z,14.00
2018-09-05T05:39:19.605Z,14.10
2018-09-05T05:41:48.990Z,14.20
2018-09-05T05:44:18.302Z,14.30
2018-09-05T05:46:47.675Z,14.40
2018-09-05T05:49:16.947Z,14.60
2018-09-05T05:51:46.466Z,14.70
2018-09-05T05:54:15.730Z,14.80
2018-09-05T05:56:44.997Z,14.90
2018-09-05T05:59:14.670Z,15.10
2018-09-05T06:01:43.930Z,15.20
2018-09-05T06:04:13.236Z,15.40
2018-09-05T06:06:42.518Z,15.50
2018-09-05T06:09:12.132Z,15.60
2018-09-05T06:11:41.427Z,15.80
2018-09-05T06:14:10.740Z,15.90
2018-09-05T06:16:40.088Z,16.00
2018-09-05T06:19:09.496Z,16.10
2018-09-05T06:21:38.980Z,16.20
2018-09-05T06:24:08.313Z,16.30
2018-09-05T06:26:37.617Z,16.50
2018-09-05T06:29:06.947Z,16.70
2018-09-05T06:31:36.262Z,16.90
2018-09-05T06:34:05.643Z,17.10
2018-09-05T06:36:34.949Z,17.30
2018-09-05T06:39:06.473Z,17.50
2018-09-05T06:41:35.730Z,17.50
2018-09-05T06:44:05.152Z,17.60
2018-09-05T06:46:34.510Z,17.70
2018-09-05T06:49:03.998Z,17.90
2018-09-05T06:51:33.570Z,18.00
2018-09-05T06:54:03.010Z,18.10
2018-09-05T06:56:32.540Z,18.20
2018-09-05T06:59:01.839Z,18.40
2018-09-05T07:01:31.168Z,18.60
2018-09-05T07:04:00.681Z,18.70
2018-09-05T07:06:29.999Z,18.90
2018-09-05T07:09:00.052Z,19.10
2018-09-05T07:11:29.346Z,19.10
2018-09-05T07:13:58.654Z,19.20
2018-09-05T07:16:27.923Z,19.40
2018-09-05T07:18:57.221Z,19.50
2018-09-05T07:21:26.691Z,19.70
2018-09-05T07:23:55.911Z,19.80
2018-09-05T07:26:25.176Z,19.90
2018-09-05T07:28:54.479Z,20.00
2018-09-05T07:31:23.742Z,20.00
2018-09-05T07:33:53.042Z,20.20
2018-09-05T07:36:22.406Z,20.30
2018-09-05T07:38:51.706Z,20.50
2018-09-05T07:41:20.985Z,20.50
2018-09-05T07:43:50.356Z,20.60
2018-09-05T07:46:19.601Z,20.60
2018-09-05T07:48:48.865Z,20.80
2018-09-05T07:51:18.430Z,20.90
2018-09-05T07:53:47.702Z,21.00
2018-09-05T07:56:17.503Z,21.00
2018-09-05T07:58:47.077Z,21.20
2018-09-05T08:01:16.374Z,21.40
2018-09-05T08:03:45.613Z,21.50
2018-09-05T08:06:14.913Z,21.60
2018-09-05T08:08:44.233Z,21.60
2018-09-05T08:11:13.550Z,21.70
2018-09-05T08:13:42.830Z,21.80
2018-09-05T08:16:12.086Z,21.90
2018-09-05T08:18:41.399Z,21.90
2018-09-05T08:21:10.713Z,22.00
2018-09-05T08:23:39.975Z,22.10
2018-09-05T08:26:09.249Z,22.20
2018-09-05T08:28:38.505Z,22.30
2018-09-05T08:31:07.789Z,22.40
2018-09-05T08:33:37.107Z,22.50
2018-09-05T08:36:06.838Z,22.40
2018-09-05T08:38:35.985Z,22.40
2018-09-05T08:41:10.420Z,22.40
2018-09-05T08:43:40.826Z,22.50
2018-09-05T08:46:10.255Z,22.60
2018-09-05T08:48:39.482Z,22.60
2018-09-05T08:51:08.771Z,22.70
2018-09-05T08:53:38.086Z,22.90
2018-09-05T08:56:07.515Z,22.90
2018-09-05T08:58:36.817Z,22.90
2018-09-05T09:01:06.283Z,23.00
2018-09-05T09:03:35.567Z,23.10
2018-09-05T09:06:04.924Z,23.20
2018-09-05T09:08:34.204Z,23.30
2018-09-05T09:11:03.493Z,23.30
2018-09-05T09:13:32.750Z,23.40
2018-09-05T09:16:02.009Z,23.50
2018-09-05T09:18:31.249Z,23.50
2018-09-05T09:21:00.492Z,23.60
2018-09-05T09:23:29.787Z,23.60
2018-09-05T09:25:59.091Z,23.70
2018-09-05T09:28:28.471Z,23.70
2018-09-05T09:30:57.745Z,23.70
2018-09-05T09:33:27.098Z,23.70
2018-09-05T09:35:56.376Z,23.80
2018-09-05T09:38:25.665Z,23.90
2018-09-05T09:40:54.912Z,24.10
2018-09-05T09:43:24.129Z,24.20
2018-09-05T09:45:53.393Z,24.30
2018-09-05T09:48:22.647Z,24.30
2018-09-05T09:50:51.860Z,24.40
2018-09-05T09:53:21.103Z,24.40
2018-09-05T09:55:50.398Z,24.30
2018-09-05T09:58:19.658Z,24.20
2018-09-05T10:00:53.961Z,24.10
2018-09-05T10:03:28.483Z,24.30
2018-09-05T10:06:02.956Z,24.40
2018-09-05T10:08:36.759Z,24.30
2018-09-05T10:11:11.307Z,24.20
2018-09-05T10:13:45.852Z,24.30
2018-09-05T10:16:20.205Z,24.50
2018-09-05T10:18:51.507Z,24.60
2018-09-05T10:21:20.805Z,24.60
2018-09-05T10:23:50.088Z,24.60
2018-09-05T10:26:19.350Z,24.60
2018-09-05T10:28:48.602Z,24.60
2018-09-05T10:31:17.848Z,24.60
2018-09-05T10:33:47.095Z,24.70
2018-09-05T10:36:16.334Z,24.90
2018-09-05T10:38:45.837Z,24.90
2018-09-05T10:41:15.068Z,25.00
2018-09-05T10:43:44.307Z,25.00
2018-09-05T10:46:13.507Z,25.10
2018-09-05T10:48:42.907Z,25.00
2018-09-05T10:51:12.266Z,25.00
2018-09-05T10:53:41.659Z,25.00
2018-09-05T10:56:41.301Z,25.10
2018-09-05T10:59:10.669Z,25.30
2018-09-05T11:01:43.001Z,25.40
2018-09-05T11:04:12.439Z,25.40
2018-09-05T11:06:41.724Z,25.60
2018-09-05T11:09:11.927Z,25.60
2018-09-05T11:11:41.326Z,25.70
2018-09-05T11:14:11.451Z,25.80
2018-09-05T11:16:41.145Z,25.70
2018-09-05T11:19:10.703Z,25.50
2018-09-05T11:21:40.334Z,25.60
2018-09-05T11:24:09.674Z,25.70
2018-09-05T11:26:39.278Z,25.80
2018-09-05T11:29:08.646Z,25.90
2018-09-05T11:31:37.862Z,25.90
2018-09-05T11:34:07.161Z,26.00
2018-09-05T11:36:36.484Z,26.10
2018-09-05T11:39:09.921Z,26.00
2018-09-05T11:41:39.424Z,26.00
2018-09-05T11:44:08.694Z,26.00
2018-09-05T11:46:38.807Z,26.10
2018-09-05T11:49:09.005Z,26.20
2018-09-05T11:51:38.402Z,26.30
2018-09-05T11:54:08.343Z,26.50
2018-09-05T11:56:37.678Z,26.60
2018-09-05T11:59:07.218Z,26.60
2018-09-05T12:01:36.554Z,26.70
2018-09-05T12:04:05.960Z,26.70
2018-09-05T12:06:35.326Z,26.80
2018-09-05T12:09:07.838Z,26.90
2018-09-05T12:11:37.145Z,26.80
2018-09-05T12:14:06.856Z,26.80
2018-09-05T12:16:37.496Z,26.70
2018-09-05T12:19:07.517Z,26.50
2018-09-05T12:21:36.903Z,26.60
2018-09-05T12:24:06.288Z,26.60
2018-09-05T12:26:35.651Z,26.60
2018-09-05T12:29:07.617Z,26.60
2018-09-05T12:31:36.973Z,26.70
2018-09-05T12:34:06.294Z,26.80
2018-09-05T12:36:35.744Z,26.90
2018-09-05T12:39:09.337Z,27.10
2018-09-05T12:41:38.786Z,27.00
2018-09-05T12:44:08.162Z,27.00
2018-09-05T12:46:37.890Z,27.00
2018-09-05T12:49:07.479Z,27.00
2018-09-05T12:51:37.175Z,27.00
2018-09-05T12:54:07.447Z,27.00
2018-09-05T12:56:36.990Z,27.10
2018-09-05T12:59:06.541Z,27.10
2018-09-05T13:01:35.978Z,27.20
2018-09-05T13:04:05.404Z,27.30
2018-09-05T13:06:35.237Z,27.50
2018-09-05T13:09:07.202Z,27.50
2018-09-05T13:11:36.619Z,27.70
2018-09-05T13:14:06.124Z,27.70
2018-09-05T13:16:35.587Z,27.80
2018-09-05T13:19:05.048Z,28.00
2018-09-05T13:21:34.663Z,28.10
2018-09-05T13:24:04.065Z,28.10
2018-09-05T13:26:33.713Z,28.10
2018-09-05T13:29:03.172Z,28.10
2018-09-05T13:31:33.480Z,28.10
2018-09-05T13:34:02.933Z,28.10
2018-09-05T13:36:32.591Z,28.20
2018-09-05T13:39:01.923Z,28.20
2018-09-05T13:41:31.606Z,28.30
2018-09-05T13:44:01.101Z,28.30
2018-09-05T13:46:30.671Z,28.50
2018-09-05T13:49:00.248Z,28.70
2018-09-05T13:51:29.780Z,28.90
2018-09-05T13:53:59.303Z,28.90
2018-09-05T13:56:28.788Z,28.90
2018-09-05T13:58:58.292Z,29.10
2018-09-05T14:01:27.867Z,29.20
2018-09-05T14:03:57.448Z,28.90
2018-09-05T14:06:27.126Z,28.60
2018-09-05T14:08:56.645Z,28.30
2018-09-05T14:11:26.595Z,28.20
2018-09-05T14:13:56.021Z,27.90
2018-09-05T14:16:25.526Z,27.70
2018-09-05T14:18:55.134Z,27.70
2018-09-05T14:21:24.632Z,27.60
2018-09-05T14:23:54.174Z,27.30
2018-09-05T14:26:23.815Z,27.00
2018-09-05T14:28:53.388Z,27.00
2018-09-05T14:31:22.927Z,27.00
2018-09-05T14:33:53.258Z,27.10
2018-09-05T14:36:23.093Z,27.00
2018-09-05T14:38:52.882Z,26.90
2018-09-05T14:41:22.412Z,26.70
2018-09-05T14:43:52.045Z,26.70
2018-09-05T14:46:21.777Z,26.60
2018-09-05T14:48:51.530Z,26.50
2018-09-05T14:51:21.251Z,26.50
2018-09-05T14:53:50.927Z,26.50
2018-09-05T14:56:20.505Z,26.70
2018-09-05T14:58:50.318Z,26.90
2018-09-05T15:01:19.920Z,27.10
2018-09-05T15:03:49.423Z,27.20
2018-09-05T15:06:19.052Z,27.20
2018-09-05T15:08:48.638Z,27.20
2018-09-05T15:11:18.210Z,27.00
2018-09-05T15:13:47.747Z,26.80
2018-09-05T15:16:17.440Z,26.70
2018-09-05T15:18:47.063Z,26.50
2018-09-05T15:21:16.612Z,26.40
2018-09-05T15:23:46.199Z,26.50
2018-09-05T15:26:15.884Z,26.60
2018-09-05T15:28:45.956Z,26.70
2018-09-05T15:31:15.568Z,26.80
2018-09-05T15:33:45.386Z,26.90
2018-09-05T15:36:15.130Z,26.90
2018-09-05T15:38:44.678Z,27.00
2018-09-05T15:41:14.232Z,26.90
2018-09-05T15:43:43.915Z,27.00
2018-09-05T15:46:13.527Z,27.10
2018-09-05T15:48:43.296Z,27.20
2018-09-05T15:51:12.831Z,27.00
2018-09-05T15:53:44.847Z,27.00
2018-09-05T15:56:14.746Z,27.00
2018-09-05T15:58:44.226Z,27.00
2018-09-05T16:01:14.115Z,27.00
2018-09-05T16:03:43.948Z,26.90
2018-09-05T16:06:13.757Z,26.80
2018-09-05T16:08:43.464Z,26.70
2018-09-05T16:11:13.079Z,26.70
2018-09-05T16:13:43.505Z,26.70
2018-09-05T16:16:13.303Z,26.60
2018-09-05T16:18:49.730Z,26.60
2018-09-05T16:21:19.144Z,26.50
2018-09-05T16:23:48.746Z,26.50
2018-09-05T16:26:18.236Z,26.40
2018-09-05T16:28:47.910Z,26.30
2018-09-05T16:31:17.468Z,26.20
2018-09-05T16:33:47.005Z,26.10
2018-09-05T16:36:16.822Z,25.90
2018-09-05T16:38:48.215Z,25.80
2018-09-05T16:41:18.075Z,25.70
2018-09-05T16:43:47.743Z,25.60
2018-09-05T16:46:17.538Z,25.50
2018-09-05T16:48:47.075Z,25.50
2018-09-05T16:51:16.666Z,25.40
2018-09-05T16:53:46.418Z,25.40
2018-09-05T16:56:16.086Z,25.40
2018-09-05T16:58:45.715Z,25.30
2018-09-05T17:01:15.345Z,25.20
2018-09-05T17:03:44.955Z,25.10
2018-09-05T17:06:18.391Z,25.00
2018-09-05T17:08:47.824Z,24.90
2018-09-05T17:11:18.046Z,24.80
2018-09-05T17:13:47.838Z,24.70
2018-09-05T17:16:17.393Z,24.60
2018-09-05T17:18:46.946Z,24.60
2018-09-05T17:21:16.499Z,24.60
2018-09-05T17:23:46.042Z,24.70
2018-09-05T17:26:15.649Z,24.60
2018-09-05T17:28:45.306Z,24.50
2018-09-05T17:31:15.042Z,24.40
2018-09-05T17:33:44.755Z,24.30
2018-09-05T17:36:14.932Z,24.20
2018-09-05T17:38:44.635Z,24.00
2018-09-05T17:41:14.129Z,23.90
2018-09-05T17:43:43.652Z,23.90
2018-09-05T17:46:13.105Z,23.70
2018-09-05T17:48:42.956Z,23.60
2018-09-05T17:51:12.565Z,23.50
2018-09-05T17:53:44.679Z,23.30
2018-09-05T17:56:14.493Z,23.20
2018-09-05T17:58:44.430Z,23.00
2018-09-05T18:01:16.901Z,22.80
2018-09-05T18:03:46.431Z,22.80
2018-09-05T18:06:15.919Z,22.60
2018-09-05T18:08:45.870Z,22.50
2018-09-05T18:11:15.696Z,22.40
2018-09-05T18:13:47.202Z,22.30
2018-09-05T18:16:16.702Z,22.20
2018-09-05T18:18:46.516Z,22.10
2018-09-05T18:21:15.973Z,22.00
2018-09-05T18:23:45.843Z,21.90
2018-09-05T18:26:15.529Z,21.80
2018-09-05T18:28:45.239Z,21.70
2018-09-05T18:31:14.898Z,21.60
2018-09-05T18:33:44.631Z,21.60
2018-09-05T18:36:14.398Z,21.50
2018-09-05T18:38:44.307Z,21.40
2018-09-05T18:41:14.352Z,21.40
2018-09-05T18:43:44.113Z,21.30
2018-09-05T18:46:13.726Z,21.20
2018-09-05T18:48:43.557Z,21.10
2018-09-05T18:51:13.020Z,21.10
2018-09-05T18:53:42.802Z,21.10
2018-09-05T18:56:12.454Z,21.10
2018-09-05T18:58:41.994Z,21.00
2018-09-05T19:01:11.611Z,21.00
2018-09-05T19:03:41.228Z,20.90
2018-09-05T19:06:10.747Z,20.90
2018-09-05T19:08:40.294Z,20.90
2018-09-05T19:11:09.778Z,20.80
2018-09-05T19:13:39.350Z,20.80
2018-09-05T19:16:09.076Z,20.80
2018-09-05T19:18:38.553Z,20.70
2018-09-05T19:21:08.027Z,20.70
2018-09-05T19:23:37.493Z,20.70
2018-09-05T19:26:12.438Z,20.60
2018-09-05T19:28:41.851Z,20.60
2018-09-05T19:31:11.229Z,20.60
2018-09-05T19:33:40.927Z,20.50
2018-09-05T19:36:10.577Z,20.50
2018-09-05T19:38:40.308Z,20.40
2018-09-05T19:41:09.945Z,20.30
2018-09-05T19:43:39.360Z,20.30
2018-09-05T19:46:09.127Z,20.30
2018-09-05T19:48:38.916Z,20.30
2018-09-05T19:51:08.530Z,20.30
2018-09-05T19:53:38.374Z,20.30
2018-09-05T19:56:08.223Z,20.20
2018-09-05T19:58:37.653Z,20.20
2018-09-05T20:01:07.358Z,20.10
2018-09-05T20:03:36.920Z,20.10
2018-09-05T20:06:07.659Z,20.10
2018-09-05T20:08:37.188Z,20.00
2018-09-05T20:11:06.725Z,20.00
2018-09-05T20:13:36.428Z,19.90
2018-09-05T20:16:06.159Z,19.90
2018-09-05T20:18:35.537Z,19.90
2018-09-05T20:21:05.005Z,19.90
2018-09-05T20:23:34.558Z,19.90
2018-09-05T20:26:03.910Z,19.90
2018-09-05T20:28:33.268Z,19.90
2018-09-05T20:31:02.648Z,19.90
2018-09-05T20:33:31.947Z,19.90
2018-09-05T20:36:01.656Z,19.90
2018-09-05T20:38:31.285Z,19.80
2018-09-05T20:41:00.700Z,19.80
2018-09-05T20:43:30.133Z,19.70
2018-09-05T20:45:59.574Z,19.60
2018-09-05T20:48:29.041Z,19.60
2018-09-05T20:50:58.722Z,19.60
2018-09-05T20:53:28.183Z,19.60
2018-09-05T20:55:57.626Z,19.60
2018-09-05T20:58:27.018Z,19.60
2018-09-05T21:00:56.562Z,19.50
2018-09-05T21:03:25.960Z,19.40
2018-09-05T21:05:55.362Z,19.30
2018-09-05T21:08:24.710Z,19.20
2018-09-05T21:10:54.270Z,19.10
2018-09-05T21:13:23.667Z,19.00
2018-09-05T21:15:53.101Z,19.00
2018-09-05T21:18:22.485Z,19.00
2018-09-05T21:20:52.467Z,19.00
2018-09-05T21:23:21.918Z,19.00
2018-09-05T21:25:51.339Z,19.00
2018-09-05T21:28:20.669Z,19.00
2018-09-05T21:30:50.149Z,18.90
2018-09-05T21:33:19.570Z,18.90
2018-09-05T21:35:48.948Z,18.90
2018-09-05T21:38:18.376Z,18.80
2018-09-05T21:40:47.760Z,18.80
2018-09-05T21:43:17.072Z,18.80
2018-09-05T21:45:46.485Z,18.70
2018-09-05T21:48:15.841Z,18.60
2018-09-05T21:50:45.241Z,18.50
2018-09-05T21:53:14.733Z,18.50
2018-09-05T21:55:44.255Z,18.40
2018-09-05T21:58:13.687Z,18.30
2018-09-05T22:00:43.213Z,18.30
2018-09-05T22:03:12.627Z,18.20
2018-09-05T22:05:42.005Z,18.10
2018-09-05T22:08:11.474Z,18.10
2018-09-05T22:10:40.907Z,18.00
2018-09-05T22:13:10.317Z,18.00
2018-09-05T22:15:47.902Z,17.90
2018-09-05T22:18:18.321Z,17.80
2018-09-05T22:20:47.699Z,17.80
2018-09-05T22:23:17.233Z,17.70
2018-09-05T22:25:46.637Z,17.70
2018-09-05T22:28:16.055Z,17.70
2018-09-05T22:30:45.545Z,17.60
2018-09-05T22:33:14.942Z,17.60
2018-09-05T22:35:44.256Z,17.50
2018-09-05T22:38:13.557Z,17.50
2018-09-05T22:40:48.202Z,17.50
2018-09-05T22:43:36.059Z,17.50
2018-09-05T22:46:22.578Z,17.40
2018-09-05T22:51:22.349Z,17.40
2018-09-05T22:56:12.832Z,17.40
2018-09-05T22:58:59.829Z,17.30
2018-09-05T23:04:21.423Z,17.30
2018-09-05T23:07:45.517Z,17.30
2018-09-05T23:10:31.870Z,17.20
2018-09-05T23:13:18.164Z,17.20
2018-09-05T23:16:04.642Z,17.10
2018-09-05T23:19:51.704Z,17.10
2018-09-05T23:22:21.043Z,17.10
2018-09-05T23:24:50.398Z,17.20
2018-09-05T23:27:19.697Z,17.10
2018-09-05T23:29:48.991Z,17.10
2018-09-05T23:32:18.279Z,17.10
2018-09-05T23:34:47.591Z,17.10
2018-09-05T23:37:16.941Z,17.10
2018-09-05T23:39:46.274Z,17.10
2018-09-05T23:42:15.647Z,17.20
2018-09-05T23:44:45.082Z,17.20
2018-09-05T23:47:14.435Z,17.30
2018-09-05T23:49:43.815Z,17.30
2018-09-05T23:52:13.452Z,17.30
2018-09-05T23:54:42.811Z,17.30
2018-09-05T23:57:12.500Z,17.20
2018-09-05T23:59:41.830Z,17.20
